createdAt,value
2022-11-17T00:01:39.185Z,7.85
2022-11-17T00:04:06.298Z,7.85
2022-11-17T00:06:33.413Z,7.90
2022-11-17T00:09:00.474Z,7.93
2022-11-17T00:11:27.468Z,7.93
2022-11-17T00:13:54.394Z,8.01
2022-11-17T00:16:22.191Z,8.00
2022-11-17T00:18:49.208Z,8.00
2022-11-17T00:21:18.196Z,7.99
2022-11-17T00:23:45.155Z,7.91
2022-11-17T00:26:20.565Z,7.93
2022-11-17T00:28:51.441Z,7.94
2022-11-17T00:31:18.425Z,7.94
2022-11-17T00:33:45.407Z,7.88
2022-11-17T00:36:14.633Z,7.87
2022-11-17T00:38:41.637Z,7.89
2022-11-17T00:41:08.612Z,7.92
2022-11-17T00:43:35.827Z,7.94
2022-11-17T00:46:03.030Z,7.95
2022-11-17T00:48:29.983Z,7.94
2022-11-17T00:50:56.951Z,7.92
2022-11-17T00:53:23.884Z,7.93
2022-11-17T00:55:50.900Z,7.85
2022-11-17T00:58:17.924Z,7.88
2022-11-17T01:00:44.905Z,7.85
2022-11-17T01:03:11.908Z,7.88
2022-11-17T01:05:38.895Z,7.86
2022-11-17T01:08:05.958Z,7.86
2022-11-17T01:10:35.303Z,7.85
2022-11-17T01:13:02.778Z,7.83
2022-11-17T01:15:29.772Z,7.82
2022-11-17T01:17:56.723Z,7.83
2022-11-17T01:20:23.731Z,7.73
2022-11-17T01:22:50.701Z,7.77
2022-11-17T01:25:17.661Z,7.76
2022-11-17T01:27:44.628Z,7.78
2022-11-17T01:30:11.966Z,7.81
2022-11-17T01:32:38.906Z,7.73
2022-11-17T01:35:06.778Z,7.78
2022-11-17T01:37:33.732Z,7.81
2022-11-17T01:40:00.710Z,7.75
2022-11-17T01:42:27.773Z,7.75
2022-11-17T01:44:59.034Z,7.74
2022-11-17T01:47:41.286Z,7.74
2022-11-17T01:50:26.490Z,7.77
2022-11-17T01:52:56.818Z,7.78
2022-11-17T01:55:25.584Z,7.79
2022-11-17T01:58:00.108Z,7.81
2022-11-17T02:00:27.808Z,7.81
2022-11-17T02:02:55.616Z,7.86
2022-11-17T02:05:22.517Z,7.88
2022-11-17T02:07:52.528Z,7.89
2022-11-17T02:10:19.635Z,7.90
2022-11-17T02:12:48.108Z,7.90
2022-11-17T02:15:15.104Z,7.90
2022-11-17T02:17:42.941Z,7.85
2022-11-17T02:20:39.649Z,7.87
2022-11-17T02:23:47.154Z,7.90
2022-11-17T02:26:26.416Z,7.84
2022-11-17T02:29:07.137Z,7.91
2022-11-17T02:31:42.473Z,7.92
2022-11-17T02:34:21.361Z,7.88
2022-11-17T02:36:58.197Z,7.89
2022-11-17T02:39:38.686Z,7.87
2022-11-17T02:42:18.500Z,7.89
2022-11-17T02:44:57.435Z,7.83
2022-11-17T02:47:29.248Z,7.81
2022-11-17T02:50:00.268Z,7.77
2022-11-17T02:52:29.176Z,7.79
2022-11-17T02:55:05.772Z,7.79
2022-11-17T02:57:32.686Z,7.77
2022-11-17T03:00:03.971Z,7.80
2022-11-17T03:02:38.003Z,7.86
2022-11-17T03:05:17.151Z,7.87
2022-11-17T03:07:53.095Z,7.90
2022-11-17T03:10:33.222Z,7.96
2022-11-17T03:13:23.315Z,7.98
2022-11-17T03:16:10.521Z,8.02
2022-11-17T03:19:19.157Z,8.01
2022-11-17T03:22:24.876Z,8.05
2022-11-17T03:24:57.488Z,8.05
2022-11-17T03:27:28.927Z,8.08
2022-11-17T03:30:00.475Z,8.12
2022-11-17T03:32:31.352Z,8.13
2022-11-17T03:35:08.190Z,8.18
2022-11-17T03:37:39.459Z,8.18
2022-11-17T03:40:10.539Z,8.18
2022-11-17T03:42:42.072Z,8.21
2022-11-17T03:45:19.958Z,8.19
2022-11-17T03:47:56.487Z,8.14
2022-11-17T03:50:47.732Z,8.05
2022-11-17T03:53:14.780Z,8.06
2022-11-17T03:55:45.261Z,8.02
2022-11-17T03:58:17.041Z,8.00
2022-11-17T04:00:44.531Z,8.00
2022-11-17T04:03:11.464Z,7.98
2022-11-17T04:05:38.399Z,7.94
2022-11-17T04:08:05.513Z,7.92
2022-11-17T04:10:32.577Z,7.96
2022-11-17T04:12:59.547Z,7.92
2022-11-17T04:15:27.242Z,7.87
2022-11-17T04:17:54.909Z,7.91
2022-11-17T04:20:22.029Z,7.85
2022-11-17T04:22:48.987Z,7.95
2022-11-17T04:25:16.027Z,7.96
2022-11-17T04:27:42.995Z,7.97
2022-11-17T04:30:10.723Z,8.04
2022-11-17T04:32:37.668Z,8.01
2022-11-17T04:35:05.011Z,8.06
2022-11-17T04:37:31.959Z,8.07
2022-11-17T04:39:58.944Z,8.13
2022-11-17T04:42:25.889Z,8.13
2022-11-17T04:44:52.895Z,8.17
2022-11-17T04:47:19.904Z,8.19
2022-11-17T04:49:46.900Z,8.20
2022-11-17T04:52:13.864Z,8.19
2022-11-17T04:54:40.822Z,8.12
2022-11-17T04:57:07.820Z,8.15
2022-11-17T04:59:34.777Z,8.12
2022-11-17T05:02:05.907Z,8.07
2022-11-17T05:04:33.229Z,8.17
2022-11-17T05:07:00.363Z,8.14
2022-11-17T05:09:27.400Z,8.17
2022-11-17T05:11:54.356Z,8.17
2022-11-17T05:14:23.046Z,8.12
2022-11-17T05:16:50.678Z,8.14
2022-11-17T05:19:20.677Z,8.17
2022-11-17T05:21:47.668Z,8.17
2022-11-17T05:24:15.389Z,8.06
2022-11-17T05:26:43.905Z,8.15
2022-11-17T05:29:12.754Z,8.15
2022-11-17T05:31:40.082Z,8.18
2022-11-17T05:34:09.679Z,8.21
2022-11-17T05:36:36.831Z,8.17
2022-11-17T05:39:04.329Z,8.15
2022-11-17T05:41:31.409Z,8.18
2022-11-17T05:43:58.987Z,8.19
2022-11-17T05:46:27.076Z,8.17
2022-11-17T05:48:54.192Z,8.20
2022-11-17T05:51:23.317Z,8.24
2022-11-17T05:53:50.918Z,8.27
2022-11-17T05:56:39.660Z,8.24
2022-11-17T05:59:27.853Z,8.19
2022-11-17T06:02:03.908Z,8.22
2022-11-17T06:04:31.294Z,8.20
2022-11-17T06:06:59.685Z,8.20
2022-11-17T06:09:30.612Z,8.22
2022-11-17T06:12:04.330Z,8.28
2022-11-17T06:14:33.987Z,8.28
2022-11-17T06:17:07.474Z,8.31
2022-11-17T06:19:42.158Z,8.31
2022-11-17T06:22:13.136Z,8.31
2022-11-17T06:24:42.972Z,8.29
2022-11-17T06:27:11.869Z,8.30
2022-11-17T06:29:43.910Z,8.25
2022-11-17T06:32:14.138Z,8.23
2022-11-17T06:34:43.278Z,8.23
2022-11-17T06:37:22.673Z,8.25
2022-11-17T06:39:49.632Z,8.26
2022-11-17T06:42:16.583Z,8.25
2022-11-17T06:44:43.845Z,8.31
2022-11-17T06:47:10.783Z,8.37
2022-11-17T06:49:37.746Z,8.32
2022-11-17T06:52:04.743Z,8.35
2022-11-17T06:54:31.768Z,8.37
2022-11-17T06:56:58.842Z,8.40
2022-11-17T06:59:25.885Z,8.40
2022-11-17T07:01:52.959Z,8.37
2022-11-17T07:04:19.967Z,8.42
2022-11-17T07:06:47.014Z,8.42
2022-11-17T07:09:14.080Z,8.43
2022-11-17T07:11:41.147Z,8.49
2022-11-17T07:14:08.324Z,8.55
2022-11-17T07:16:35.400Z,8.57
2022-11-17T07:19:02.444Z,8.65
2022-11-17T07:21:29.521Z,8.62
2022-11-17T07:23:56.540Z,8.67
2022-11-17T07:26:23.570Z,8.68
2022-11-17T07:28:50.589Z,8.76
2022-11-17T07:31:17.681Z,8.81
2022-11-17T07:33:44.729Z,8.88
2022-11-17T07:36:12.993Z,8.88
2022-11-17T07:38:40.805Z,8.87
2022-11-17T07:41:09.726Z,8.85
2022-11-17T07:43:37.350Z,8.87
2022-11-17T07:46:11.232Z,8.91
2022-11-17T07:48:38.898Z,8.95
2022-11-17T07:51:06.699Z,9.00
2022-11-17T07:53:34.461Z,9.00
2022-11-17T07:56:06.231Z,9.06
2022-11-17T07:58:33.934Z,9.12
2022-11-17T08:01:13.559Z,9.16
2022-11-17T08:03:40.927Z,9.13
2022-11-17T08:06:08.511Z,9.15
2022-11-17T08:08:36.848Z,9.15
2022-11-17T08:11:05.299Z,9.11
2022-11-17T08:13:32.803Z,9.07
2022-11-17T08:16:00.144Z,9.09
2022-11-17T08:18:28.400Z,9.02
2022-11-17T08:21:10.275Z,9.02
2022-11-17T08:23:37.408Z,9.02
2022-11-17T08:26:06.480Z,9.02
2022-11-17T08:28:34.237Z,9.03
2022-11-17T08:31:05.619Z,8.93
2022-11-17T08:33:33.582Z,9.00
2022-11-17T08:36:01.905Z,9.08
2022-11-17T08:38:30.148Z,9.20
2022-11-17T08:41:08.088Z,9.30
2022-11-17T08:43:35.759Z,9.42
2022-11-17T08:46:03.396Z,9.49
2022-11-17T08:48:30.471Z,9.62
2022-11-17T08:50:57.965Z,9.73
2022-11-17T08:53:25.019Z,9.81
2022-11-17T08:55:52.212Z,9.89
2022-11-17T08:58:19.376Z,9.95
2022-11-17T09:00:46.513Z,9.99
2022-11-17T09:03:13.798Z,10.02
2022-11-17T09:05:43.959Z,9.94
2022-11-17T09:08:43.252Z,9.92
2022-11-17T09:10:58.295Z,9.94
2022-11-17T09:13:25.319Z,9.96
2022-11-17T09:15:52.408Z,10.00
2022-11-17T09:18:19.439Z,9.97
2022-11-17T09:20:46.439Z,10.04
2022-11-17T09:23:13.483Z,10.11
2022-11-17T09:25:40.546Z,10.10
2022-11-17T09:28:07.624Z,10.23
2022-11-17T09:30:34.643Z,10.30
2022-11-17T09:33:01.637Z,10.47
2022-11-17T09:35:28.612Z,10.67
2022-11-17T09:37:59.530Z,10.88
2022-11-17T09:40:29.115Z,11.06
2022-11-17T09:42:59.002Z,11.22
2022-11-17T09:45:31.767Z,11.34
2022-11-17T09:48:39.449Z,11.47
2022-11-17T09:50:59.981Z,11.57
2022-11-17T09:53:43.103Z,11.59
2022-11-17T09:56:11.680Z,11.65
2022-11-17T09:58:56.839Z,11.75
2022-11-17T10:01:24.238Z,11.83
2022-11-17T10:03:51.530Z,11.85
2022-11-17T10:06:31.954Z,11.84
2022-11-17T10:09:25.890Z,11.95
2022-11-17T10:11:56.906Z,12.03
2022-11-17T10:14:28.185Z,12.20
2022-11-17T10:16:57.808Z,12.12
2022-11-17T10:19:27.473Z,12.18
2022-11-17T10:22:19.468Z,12.18
2022-11-17T10:24:50.537Z,12.21
2022-11-17T10:27:17.526Z,12.17
2022-11-17T10:30:02.776Z,12.32
2022-11-17T10:32:36.680Z,12.45
2022-11-17T10:35:32.932Z,12.42
2022-11-17T10:38:17.603Z,12.47
2022-11-17T10:40:44.574Z,12.58
2022-11-17T10:43:11.605Z,12.86
2022-11-17T10:46:03.903Z,13.10
2022-11-17T10:48:33.628Z,13.24
2022-11-17T10:51:06.648Z,13.36
2022-11-17T10:53:39.462Z,13.25
2022-11-17T10:56:13.004Z,13.00
2022-11-17T10:58:56.536Z,12.90
2022-11-17T11:01:34.054Z,12.88
2022-11-17T11:04:02.978Z,12.93
2022-11-17T11:06:32.065Z,12.83
2022-11-17T11:09:21.343Z,12.80
2022-11-17T11:11:50.853Z,13.05
2022-11-17T11:14:39.347Z,13.15
2022-11-17T11:17:12.194Z,13.35
2022-11-17T11:19:41.975Z,13.46
2022-11-17T11:22:35.312Z,13.38
2022-11-17T11:25:26.112Z,13.32
2022-11-17T11:28:13.313Z,13.16
2022-11-17T11:30:52.884Z,13.17
2022-11-17T11:33:38.790Z,13.19
2022-11-17T11:36:24.473Z,13.34
2022-11-17T11:39:13.104Z,13.30
2022-11-17T11:41:52.532Z,13.44
2022-11-17T11:44:41.329Z,13.49
2022-11-17T11:47:26.331Z,13.46
2022-11-17T11:49:56.275Z,13.52
2022-11-17T11:52:31.285Z,13.33
2022-11-17T11:55:05.845Z,13.30
2022-11-17T11:57:40.695Z,13.14
2022-11-17T12:00:17.894Z,13.14
2022-11-17T12:02:51.488Z,13.10
2022-11-17T12:05:28.267Z,13.03
2022-11-17T12:08:11.922Z,12.92
2022-11-17T12:11:01.345Z,12.77
2022-11-17T12:13:28.563Z,12.51
2022-11-17T12:16:18.329Z,12.35
2022-11-17T12:18:45.353Z,12.26
2022-11-17T12:21:13.517Z,12.23
2022-11-17T12:23:54.730Z,12.10
2022-11-17T12:26:28.828Z,12.28
2022-11-17T12:29:20.844Z,12.23
2022-11-17T12:31:49.391Z,12.34
2022-11-17T12:34:25.275Z,12.36
2022-11-17T12:37:11.076Z,12.23
2022-11-17T12:39:56.115Z,12.19
2022-11-17T12:42:22.967Z,12.23
2022-11-17T12:44:56.573Z,12.00
2022-11-17T12:47:43.687Z,12.06
2022-11-17T12:50:31.963Z,12.04
2022-11-17T12:53:01.536Z,11.76
2022-11-17T12:55:28.441Z,11.80
2022-11-17T12:57:57.924Z,11.85
2022-11-17T13:00:25.767Z,12.05
2022-11-17T13:02:52.793Z,12.12
2022-11-17T13:05:21.219Z,12.18
2022-11-17T13:07:48.352Z,12.22
2022-11-17T13:10:24.502Z,12.26
2022-11-17T13:13:08.383Z,12.34
2022-11-17T13:15:35.212Z,12.32
2022-11-17T13:18:02.060Z,12.47
2022-11-17T13:20:29.884Z,12.46
2022-11-17T13:23:04.570Z,12.65
2022-11-17T13:25:31.490Z,12.61
2022-11-17T13:28:04.228Z,12.60
2022-11-17T13:30:32.212Z,12.61
2022-11-17T13:33:00.583Z,12.46
2022-11-17T13:35:32.122Z,12.22
2022-11-17T13:38:06.497Z,12.18
2022-11-17T13:40:34.497Z,12.30
2022-11-17T13:43:02.894Z,12.42
2022-11-17T13:45:29.844Z,12.34
2022-11-17T13:47:57.192Z,12.23
2022-11-17T13:50:26.862Z,12.13
2022-11-17T13:52:54.861Z,12.09
2022-11-17T13:55:22.632Z,11.84
2022-11-17T13:58:03.228Z,11.87
2022-11-17T14:00:30.644Z,11.75
2022-11-17T14:03:01.851Z,11.68
2022-11-17T14:05:29.717Z,11.70
2022-11-17T14:07:57.519Z,11.53
2022-11-17T14:10:28.726Z,11.47
2022-11-17T14:13:01.408Z,11.45
2022-11-17T14:15:28.295Z,11.46
2022-11-17T14:17:56.579Z,11.42
2022-11-17T14:20:23.407Z,11.28
2022-11-17T14:23:02.579Z,11.15
2022-11-17T14:25:29.885Z,11.06
2022-11-17T14:27:56.707Z,10.98
2022-11-17T14:30:23.545Z,10.93
2022-11-17T14:32:50.390Z,10.88
2022-11-17T14:37:45.086Z,10.77
2022-11-17T14:40:15.853Z,10.76
2022-11-17T14:42:42.734Z,10.71
2022-11-17T14:45:13.935Z,10.65
2022-11-17T14:47:41.431Z,10.63
2022-11-17T14:50:12.101Z,10.58
2022-11-17T14:52:38.918Z,10.60
2022-11-17T14:55:06.040Z,10.56
2022-11-17T14:57:32.852Z,10.52
2022-11-17T14:59:59.646Z,10.50
2022-11-17T15:02:26.423Z,10.46
2022-11-17T15:04:53.902Z,10.42
2022-11-17T15:07:21.142Z,10.36
2022-11-17T15:09:48.038Z,10.31
2022-11-17T15:12:14.839Z,10.23
2022-11-17T15:14:41.685Z,10.15
2022-11-17T15:17:13.888Z,10.01
2022-11-17T15:19:41.344Z,9.93
2022-11-17T15:22:08.236Z,9.86
2022-11-17T15:24:35.005Z,9.81
2022-11-17T15:27:01.809Z,9.74
2022-11-17T15:29:28.696Z,9.65
2022-11-17T15:31:55.540Z,9.69
2022-11-17T15:34:22.348Z,9.65
2022-11-17T15:36:49.334Z,9.62
2022-11-17T15:39:16.699Z,9.62
2022-11-17T15:41:43.936Z,9.69
2022-11-17T15:44:10.727Z,9.71
2022-11-17T15:46:38.322Z,9.73
2022-11-17T15:49:07.395Z,9.74
2022-11-17T15:51:34.499Z,9.75
2022-11-17T15:54:01.285Z,9.81
2022-11-17T15:56:29.400Z,9.80
2022-11-17T15:58:57.316Z,9.80
2022-11-17T16:01:24.174Z,9.75
2022-11-17T16:03:51.485Z,9.70
2022-11-17T16:06:18.708Z,9.72
2022-11-17T16:08:45.580Z,9.67
2022-11-17T16:11:12.422Z,9.65
2022-11-17T16:13:39.558Z,9.60
2022-11-17T16:16:06.688Z,9.58
2022-11-17T16:18:34.136Z,9.54
2022-11-17T16:21:05.358Z,9.54
2022-11-17T16:24:01.388Z,9.50
2022-11-17T16:26:28.750Z,9.57
2022-11-17T16:28:56.439Z,9.61
2022-11-17T16:31:24.436Z,9.62
2022-11-17T16:33:55.549Z,9.70
2022-11-17T16:36:23.549Z,9.70
2022-11-17T16:39:00.276Z,9.73
2022-11-17T16:41:29.505Z,9.76
2022-11-17T16:43:56.341Z,9.74
2022-11-17T16:46:24.388Z,9.76
2022-11-17T16:48:51.535Z,9.75
2022-11-17T16:51:18.927Z,9.77
2022-11-17T16:53:46.048Z,9.70
2022-11-17T16:56:13.983Z,9.72
2022-11-17T16:58:40.874Z,9.65
2022-11-17T17:01:12.469Z,9.70
2022-11-17T17:03:40.225Z,9.69
2022-11-17T17:06:08.043Z,9.65
2022-11-17T17:08:35.336Z,9.60
2022-11-17T17:11:06.209Z,9.50
2022-11-17T17:13:33.370Z,9.40
2022-11-17T17:16:03.706Z,9.34
2022-11-17T17:18:30.968Z,9.30
2022-11-17T17:20:57.807Z,9.20
2022-11-17T17:23:24.969Z,9.18
2022-11-17T17:26:01.484Z,9.08
2022-11-17T17:28:31.581Z,8.98
2022-11-17T17:30:58.848Z,8.91
2022-11-17T17:33:26.355Z,8.82
2022-11-17T17:35:53.213Z,8.78
2022-11-17T17:38:20.094Z,8.66
2022-11-17T17:40:46.930Z,8.59
2022-11-17T17:43:13.760Z,8.45
2022-11-17T17:45:40.565Z,8.38
2022-11-17T17:48:07.507Z,8.29
2022-11-17T17:50:34.435Z,8.23
2022-11-17T17:53:01.323Z,8.15
2022-11-17T17:55:29.200Z,8.05
2022-11-17T17:57:56.022Z,7.96
2022-11-17T18:00:22.886Z,7.89
2022-11-17T18:02:49.898Z,7.85
2022-11-17T18:05:16.783Z,7.84
2022-11-17T18:07:43.708Z,7.73
2022-11-17T18:10:10.590Z,7.62
2022-11-17T18:12:37.414Z,7.53
2022-11-17T18:15:04.505Z,7.48
2022-11-17T18:17:31.307Z,7.42
2022-11-17T18:19:58.160Z,7.36
2022-11-17T18:22:25.021Z,7.29
2022-11-17T18:24:55.968Z,7.28
2022-11-17T18:27:24.899Z,7.27
2022-11-17T18:29:51.822Z,7.24
2022-11-17T18:32:18.681Z,7.14
2022-11-17T18:34:45.507Z,7.12
2022-11-17T18:37:12.328Z,7.12
2022-11-17T18:39:39.098Z,7.10
2022-11-17T18:42:05.952Z,7.10
2022-11-17T18:44:32.765Z,7.09
2022-11-17T18:47:02.708Z,7.06
2022-11-17T18:49:30.267Z,7.06
2022-11-17T18:51:57.116Z,7.02
2022-11-17T18:54:23.922Z,6.96
2022-11-17T18:56:50.747Z,6.96
2022-11-17T18:59:17.711Z,6.86
2022-11-17T19:01:44.887Z,6.78
2022-11-17T19:04:12.851Z,6.71
2022-11-17T19:06:39.823Z,6.66
2022-11-17T19:09:06.696Z,6.63
2022-11-17T19:11:33.824Z,6.58
2022-11-17T19:14:01.414Z,6.54
2022-11-17T19:16:28.962Z,6.47
2022-11-17T19:18:56.470Z,6.41
2022-11-17T19:21:27.686Z,6.40
2022-11-17T19:23:56.665Z,6.32
2022-11-17T19:26:24.519Z,6.29
2022-11-17T19:28:54.543Z,6.26
2022-11-17T19:31:21.574Z,6.28
2022-11-17T19:33:49.117Z,6.31
2022-11-17T19:36:23.375Z,6.33
2022-11-17T19:38:53.915Z,6.34
2022-11-17T19:41:22.407Z,6.36
2022-11-17T19:43:52.172Z,6.41
2022-11-17T19:46:19.036Z,6.41
2022-11-17T19:48:45.885Z,6.40
2022-11-17T19:51:12.801Z,6.39
2022-11-17T19:53:39.824Z,6.37
2022-11-17T19:56:06.792Z,6.36
2022-11-17T19:58:34.072Z,6.34
2022-11-17T20:01:07.220Z,6.26
2022-11-17T20:03:34.142Z,6.30
2022-11-17T20:06:01.029Z,6.29
2022-11-17T20:08:31.098Z,6.27
2022-11-17T20:11:05.272Z,6.23
2022-11-17T20:13:32.461Z,6.22
2022-11-17T20:15:59.808Z,6.14
2022-11-17T20:18:26.772Z,6.09
2022-11-17T20:20:53.795Z,6.07
2022-11-17T20:23:20.648Z,6.09
2022-11-17T20:25:48.087Z,6.13
2022-11-17T20:28:18.006Z,6.15
2022-11-17T20:30:45.383Z,6.18
2022-11-17T20:33:12.542Z,6.18
2022-11-17T20:35:39.462Z,6.18
2022-11-17T20:38:07.240Z,6.22
2022-11-17T20:40:34.334Z,6.25
2022-11-17T20:43:01.229Z,6.27
2022-11-17T20:45:28.110Z,6.29
2022-11-17T20:47:54.981Z,6.29
2022-11-17T20:50:21.849Z,6.32
2022-11-17T20:52:48.793Z,6.36
2022-11-17T20:55:15.699Z,6.41
2022-11-17T20:57:42.621Z,6.44
2022-11-17T21:00:09.804Z,6.42
2022-11-17T21:02:36.671Z,6.49
2022-11-17T21:05:03.691Z,6.49
2022-11-17T21:07:30.625Z,6.53
2022-11-17T21:09:57.476Z,6.48
2022-11-17T21:12:24.317Z,6.53
2022-11-17T21:14:51.184Z,6.55
2022-11-17T21:17:18.137Z,6.58
2022-11-17T21:19:45.149Z,6.64
2022-11-17T21:22:12.006Z,6.59
2022-11-17T21:24:38.785Z,6.66
2022-11-17T21:27:05.610Z,6.67
2022-11-17T21:29:33.379Z,6.68
2022-11-17T21:32:00.227Z,6.63
2022-11-17T21:34:27.067Z,6.63
2022-11-17T21:36:53.855Z,6.65
2022-11-17T21:39:20.884Z,6.66
2022-11-17T21:41:50.529Z,6.67
2022-11-17T21:44:17.416Z,6.65
2022-11-17T21:46:44.327Z,6.67
2022-11-17T21:49:11.280Z,6.72
2022-11-17T21:51:38.074Z,6.71
2022-11-17T21:54:08.867Z,6.61
2022-11-17T21:56:35.961Z,6.63
2022-11-17T21:59:06.904Z,6.70
2022-11-17T22:01:34.454Z,6.78
2022-11-17T22:04:01.393Z,6.83
2022-11-17T22:06:28.695Z,6.77
2022-11-17T22:08:56.041Z,6.70
2022-11-17T22:11:24.490Z,6.69
2022-11-17T22:13:51.380Z,6.64
2022-11-17T22:16:19.260Z,6.68
2022-11-17T22:18:48.091Z,6.68
2022-11-17T22:21:14.937Z,6.72
2022-11-17T22:23:41.868Z,6.68
2022-11-17T22:26:10.594Z,6.73
2022-11-17T22:28:37.505Z,6.79
2022-11-17T22:31:05.595Z,6.82
2022-11-17T22:33:32.457Z,6.78
2022-11-17T22:35:59.949Z,6.77
2022-11-17T22:38:27.039Z,6.84
2022-11-17T22:41:05.334Z,6.84
2022-11-17T22:43:32.527Z,6.88
2022-11-17T22:46:03.532Z,6.93
2022-11-17T22:48:30.755Z,7.01
2022-11-17T22:50:58.247Z,6.98
2022-11-17T22:53:25.352Z,6.95
2022-11-17T22:55:53.680Z,6.87
2022-11-17T22:58:20.583Z,6.87
2022-11-17T23:00:47.483Z,6.84
2022-11-17T23:03:14.334Z,6.84
2022-11-17T23:05:41.200Z,6.83
2022-11-17T23:08:09.956Z,6.84
2022-11-17T23:10:37.417Z,6.85
2022-11-17T23:13:04.270Z,6.87
2022-11-17T23:15:31.128Z,6.88
2022-11-17T23:17:58.335Z,6.86
2022-11-17T23:20:25.454Z,6.81
2022-11-17T23:22:52.861Z,6.77
2022-11-17T23:25:19.770Z,6.81
2022-11-17T23:27:47.712Z,6.82
2022-11-17T23:30:14.528Z,6.83
2022-11-17T23:32:41.382Z,6.82
2022-11-17T23:35:08.479Z,6.82
2022-11-17T23:37:35.372Z,6.81
2022-11-17T23:40:02.169Z,6.85
2022-11-17T23:42:32.390Z,6.83
2022-11-17T23:44:59.835Z,6.74
2022-11-17T23:47:26.615Z,6.70
2022-11-17T23:49:53.452Z,6.71
2022-11-17T23:52:20.265Z,6.75
2022-11-17T23:54:47.044Z,6.81
2022-11-17T23:57:13.882Z,6.84
2022-11-17T23:59:40.734Z,6.80
